createdAt,value
2022-11-29T00:06:42.765Z,44.25
2022-11-29T00:14:20.092Z,48.85
2022-11-29T00:21:53.876Z,45.53
2022-11-29T00:29:30.976Z,54.10
2022-11-29T00:37:05.409Z,43.22
2022-11-29T00:44:40.597Z,56.55
2022-11-29T00:52:14.413Z,49.40
2022-11-29T00:59:49.913Z,51.10
2022-11-29T01:07:24.237Z,45.63
2022-11-29T01:15:00.729Z,43.80
2022-11-29T01:22:35.691Z,48.88
2022-11-29T01:30:11.966Z,50.05
2022-11-29T01:37:45.700Z,44.67
2022-11-29T01:45:26.351Z,55.00
2022-11-29T01:53:01.072Z,48.97
2022-11-29T02:00:36.598Z,51.42
2022-11-29T02:08:12.457Z,53.75
2022-11-29T02:15:55.280Z,47.17
2022-11-29T02:24:07.321Z,51.78
2022-11-29T02:32:08.788Z,52.85
2022-11-29T02:40:00.218Z,48.22
2022-11-29T02:47:48.536Z,45.60
2022-11-29T02:55:30.693Z,48.22
2022-11-29T03:03:15.589Z,49.83
2022-11-29T03:18:36.464Z,49.65
2022-11-29T03:26:15.906Z,52.47
2022-11-29T03:33:59.533Z,54.80
2022-11-29T03:41:41.643Z,55.38
2022-11-29T03:49:23.064Z,52.08
2022-11-29T03:56:59.286Z,54.17
2022-11-29T04:05:12.653Z,54.75
2022-11-29T04:13:25.102Z,59.40
2022-11-29T04:21:31.538Z,54.13
2022-11-29T04:29:28.876Z,53.78
2022-11-29T04:37:31.788Z,48.65
2022-11-29T04:45:39.479Z,54.20
2022-11-29T04:53:40.455Z,57.40
2022-11-29T05:01:24.318Z,59.63
2022-11-29T05:09:08.087Z,56.65
2022-11-29T05:16:48.368Z,60.20
2022-11-29T05:24:41.540Z,53.15
2022-11-29T05:32:29.545Z,50.10
2022-11-29T05:40:28.544Z,54.70
2022-11-29T05:48:08.899Z,53.33
2022-11-29T05:55:49.399Z,56.30
2022-11-29T06:03:31.517Z,53.00
2022-11-29T06:11:14.976Z,54.72
2022-11-29T06:19:28.879Z,53.58
2022-11-29T06:27:22.834Z,59.08
2022-11-29T06:35:03.473Z,46.95
2022-11-29T06:42:38.973Z,48.67
2022-11-29T06:50:31.184Z,58.75
2022-11-29T06:58:16.153Z,49.83
2022-11-29T07:05:50.632Z,63.63
2022-11-29T07:21:09.979Z,57.28
2022-11-29T07:28:56.522Z,56.08
2022-11-29T07:36:38.522Z,53.13
2022-11-29T07:44:23.327Z,53.10
2022-11-29T07:51:59.121Z,59.67
2022-11-29T07:59:34.365Z,57.58
2022-11-29T08:07:08.598Z,59.97
2022-11-29T08:14:44.358Z,58.83
2022-11-29T08:22:18.529Z,53.70
2022-11-29T08:29:53.810Z,53.90
2022-11-29T08:37:27.573Z,50.03
2022-11-29T08:45:02.940Z,56.47
2022-11-29T08:52:56.465Z,49.83
2022-11-29T09:00:32.854Z,51.50
2022-11-29T09:08:06.655Z,54.53
2022-11-29T09:15:43.594Z,53.57
2022-11-29T09:23:17.739Z,49.85
2022-11-29T09:30:53.085Z,51.53
2022-11-29T09:38:26.936Z,55.58
2022-11-29T09:46:07.635Z,60.07
2022-11-29T09:53:58.013Z,58.60
2022-11-29T10:01:38.690Z,56.78
2022-11-29T10:09:20.603Z,52.63
2022-11-29T10:17:04.304Z,55.40
2022-11-29T10:24:39.586Z,53.25
2022-11-29T10:32:17.585Z,55.85
2022-11-29T10:39:57.155Z,50.97
2022-11-29T10:47:32.829Z,55.90
2022-11-29T10:55:13.334Z,47.00
2022-11-29T11:02:49.140Z,51.85
2022-11-29T11:10:27.859Z,50.30
2022-11-29T11:18:05.967Z,51.90
2022-11-29T11:25:41.027Z,47.05
2022-11-29T11:33:21.123Z,46.97
2022-11-29T11:41:06.821Z,51.35
2022-11-29T11:48:42.934Z,49.85
2022-11-29T11:56:17.617Z,48.05
2022-11-29T12:11:37.742Z,53.30
2022-11-29T12:19:20.387Z,49.08
2022-11-29T12:26:59.716Z,56.30
2022-11-29T12:34:56.159Z,53.53
2022-11-29T12:42:41.969Z,47.97
2022-11-29T12:50:30.152Z,56.05
2022-11-29T12:58:12.187Z,51.40
2022-11-29T13:05:57.394Z,49.85
2022-11-29T13:13:40.658Z,53.90
2022-11-29T13:21:20.752Z,50.95
2022-11-29T13:28:55.590Z,50.25
2022-11-29T13:36:44.589Z,46.78
2022-11-29T13:44:28.563Z,50.20
2022-11-29T13:52:07.629Z,52.92
2022-11-29T13:59:47.247Z,49.60
2022-11-29T14:07:23.173Z,49.72
2022-11-29T14:15:01.453Z,55.67
2022-11-29T14:22:37.151Z,53.38
2022-11-29T14:30:55.853Z,54.08
2022-11-29T14:38:38.849Z,52.60
2022-11-29T14:46:29.524Z,48.90
2022-11-29T14:54:14.190Z,55.58
2022-11-29T15:01:50.435Z,48.87
2022-11-29T15:09:27.606Z,60.55
2022-11-29T15:17:15.484Z,49.38
2022-11-29T15:24:56.746Z,54.53
2022-11-29T15:32:33.164Z,52.50
2022-11-29T15:40:13.881Z,65.15
2022-11-29T15:47:48.184Z,67.13
2022-11-29T15:55:24.076Z,56.47
2022-11-29T16:03:00.809Z,56.30
2022-11-29T16:10:43.547Z,62.00
2022-11-29T16:18:23.110Z,66.35
2022-11-29T16:26:02.926Z,66.07
2022-11-29T16:33:39.497Z,61.28
2022-11-29T16:41:32.442Z,66.05
2022-11-29T16:49:34.498Z,66.43
2022-11-29T16:57:12.180Z,58.95
2022-11-29T17:04:46.478Z,72.35
2022-11-29T17:19:56.018Z,70.93
2022-11-29T17:27:31.211Z,72.78
2022-11-29T17:35:05.845Z,70.93
2022-11-29T17:50:14.806Z,71.55
2022-11-29T17:57:50.072Z,78.37
2022-11-29T18:05:24.074Z,71.50
2022-11-29T18:12:59.363Z,80.03
2022-11-29T18:20:33.274Z,74.35
2022-11-29T18:28:09.172Z,73.87
2022-11-29T18:35:43.076Z,74.47
2022-11-29T18:43:18.348Z,73.67
2022-11-29T18:50:52.331Z,69.22
2022-11-29T18:58:27.826Z,62.33
2022-11-29T19:06:01.946Z,80.18
2022-11-29T19:13:37.440Z,73.60
2022-11-29T19:21:13.551Z,64.95
2022-11-29T19:28:49.680Z,74.00
2022-11-29T19:36:25.691Z,67.43
2022-11-29T19:44:02.199Z,71.10
2022-11-29T19:51:37.216Z,59.90
2022-11-29T19:59:12.371Z,67.43
2022-11-29T20:06:46.198Z,65.50
2022-11-29T20:14:21.557Z,70.63
2022-11-29T20:21:55.353Z,61.20
2022-11-29T20:29:32.751Z,71.90
2022-11-29T20:37:26.689Z,62.85
2022-11-29T20:45:03.248Z,67.15
2022-11-29T20:52:44.949Z,71.00
2022-11-29T21:00:21.529Z,62.05
2022-11-29T21:07:55.497Z,68.60
2022-11-29T21:15:31.555Z,71.40
2022-11-29T21:23:15.154Z,67.32
2022-11-29T21:30:51.343Z,66.45
2022-11-29T21:38:27.755Z,64.78
2022-11-29T21:46:03.259Z,65.38
2022-11-29T21:53:38.528Z,68.93
2022-11-29T22:01:16.369Z,66.85
2022-11-29T22:08:50.431Z,70.45
2022-11-29T22:16:25.742Z,75.43
2022-11-29T22:23:59.898Z,68.32
2022-11-29T22:31:37.214Z,71.63
2022-11-29T22:39:11.269Z,70.95
2022-11-29T22:46:46.565Z,69.17
2022-11-29T22:54:20.466Z,64.68
2022-11-29T23:01:56.276Z,67.07
2022-11-29T23:09:30.046Z,72.60
2022-11-29T23:17:05.577Z,69.83
2022-11-29T23:24:40.810Z,70.65
2022-11-29T23:32:16.394Z,69.43
2022-11-29T23:39:50.388Z,69.15
2022-11-29T23:47:25.735Z,68.20
2022-11-29T23:54:59.565Z,70.25
